Time;durP1;ratioP1;P1;durP2;ratioP2;P2;SDS_P1;SDS_P2;PMS_P1;PMS_P2;Temp;Humidity;BMP_temperature;BMP_pressure;BME280_temperature;BME280_humidity;BME280_pressure;Samples;Min_cycle;Max_cycle;Signal;HPM_P1;HPM_P2
2022/04/23 00:00:08;;;;;;;58.80;3.00;;;;;;;;;;5093190;28;20508;-72
2022/04/23 00:02:39;;;;;;;58.03;2.77;;;;;;;;;;5093383;28;20848;-72
2022/04/23 00:05:06;;;;;;;59.00;3.57;;;;;;;;;;5093378;28;20460;-72
2022/04/23 00:07:33;;;;;;;58.17;2.80;;;;;;;;;;5092680;28;20456;-72
2022/04/23 00:10:01;;;;;;;58.07;2.70;;;;;;;;;;5093059;28;20572;-72
2022/04/23 00:12:28;;;;;;;58.37;2.90;;;;;;;;;;5093027;28;20487;-72
2022/04/23 00:14:55;;;;;;;58.30;2.60;;;;;;;;;;5092965;28;20455;-72
2022/04/23 00:17:23;;;;;;;58.20;2.70;;;;;;;;;;5092515;28;20690;-73
2022/04/23 00:19:52;;;;;;;61.53;3.10;;;;;;;;;;5093052;28;20465;-72
2022/04/23 00:22:20;;;;;;;57.87;2.50;;;;;;;;;;5092894;28;20453;-72
2022/04/23 00:24:47;;;;;;;58.17;2.50;;;;;;;;;;5093173;28;21074;-72
2022/04/23 00:27:14;;;;;;;58.30;2.80;;;;;;;;;;5091965;28;20881;-72
2022/04/23 00:29:42;;;;;;;58.30;2.80;;;;;;;;;;5092802;28;20487;-72
2022/04/23 00:32:10;;;;;;;58.17;2.90;;;;;;;;;;5092954;28;20501;-72
2022/04/23 00:34:37;;;;;;;58.13;2.70;;;;;;;;;;5092553;28;20552;-72
2022/04/23 00:37:06;;;;;;;58.20;3.00;;;;;;;;;;5092777;28;20476;-72
2022/04/23 00:39:33;;;;;;;58.30;2.60;;;;;;;;;;5092258;28;20988;-72
2022/04/23 00:42:01;;;;;;;58.27;2.53;;;;;;;;;;5092500;28;20454;-72
2022/04/23 00:44:28;;;;;;;58.30;2.47;;;;;;;;;;5092596;28;20502;-72
2022/04/23 00:46:56;;;;;;;57.93;2.50;;;;;;;;;;5092537;28;20446;-72
2022/04/23 00:49:23;;;;;;;58.23;2.57;;;;;;;;;;5091653;28;20491;-72
2022/04/23 00:51:50;;;;;;;58.37;2.90;;;;;;;;;;5092461;28;20562;-72
2022/04/23 00:54:21;;;;;;;57.97;2.70;;;;;;;;;;5092201;28;20794;-72
2022/04/23 00:56:49;;;;;;;58.60;3.00;;;;;;;;;;5092640;28;20545;-72
2022/04/23 00:59:16;;;;;;;58.27;2.60;;;;;;;;;;5091738;28;20732;-72
2022/04/23 01:01:43;;;;;;;58.03;2.63;;;;;;;;;;5092340;28;20453;-72
2022/04/23 01:04:12;;;;;;;57.97;2.60;;;;;;;;;;5092162;28;20454;-72
2022/04/23 01:06:40;;;;;;;58.07;2.63;;;;;;;;;;5092136;28;20493;-72
2022/04/23 01:09:08;;;;;;;57.83;2.73;;;;;;;;;;5091673;28;20887;-72
2022/04/23 01:11:36;;;;;;;58.27;3.20;;;;;;;;;;5092078;28;20449;-72
2022/04/23 01:14:04;;;;;;;58.40;2.80;;;;;;;;;;5092193;28;20502;-72
2022/04/23 01:16:31;;;;;;;58.03;2.70;;;;;;;;;;5091949;28;20979;-72
2022/04/23 01:18:59;;;;;;;58.23;2.80;;;;;;;;;;5091339;28;20493;-72
2022/04/23 01:21:27;;;;;;;58.20;2.70;;;;;;;;;;5091967;28;20484;-72
2022/04/23 01:23:55;;;;;;;58.27;2.53;;;;;;;;;;5092188;28;20450;-72
2022/04/23 01:26:27;;;;;;;58.17;2.40;;;;;;;;;;5092076;28;20449;-72
2022/04/23 01:28:55;;;;;;;58.03;2.50;;;;;;;;;;5091088;28;21081;-72
2022/04/23 01:31:22;;;;;;;57.97;2.33;;;;;;;;;;5091856;28;20488;-73
2022/04/23 01:33:49;;;;;;;58.27;2.80;;;;;;;;;;5091814;28;20539;-72
2022/04/23 01:36:16;;;;;;;58.17;2.70;;;;;;;;;;5092095;28;20458;-72
2022/04/23 01:38:46;;;;;;;58.27;2.80;;;;;;;;;;5091262;28;20567;-72
2022/04/23 01:41:13;;;;;;;58.03;2.60;;;;;;;;;;5091808;28;20448;-72
2022/04/23 01:43:40;;;;;;;58.20;2.70;;;;;;;;;;5091870;28;20452;-72
2022/04/23 01:46:07;;;;;;;57.97;2.53;;;;;;;;;;5089820;28;20448;-72
2022/04/23 01:48:34;;;;;;;57.97;2.60;;;;;;;;;;5095144;28;20570;-72
2022/04/23 01:51:01;;;;;;;58.10;2.60;;;;;;;;;;5095922;28;20489;-73
2022/04/23 01:53:29;;;;;;;58.17;2.97;;;;;;;;;;5095883;28;20878;-73
2022/04/23 01:55:57;;;;;;;57.97;2.80;;;;;;;;;;5095759;28;20455;-73
2022/04/23 01:58:25;;;;;;;58.10;2.70;;;;;;;;;;5094813;28;20468;-73
2022/04/23 02:00:53;;;;;;;57.97;2.57;;;;;;;;;;5095614;28;20540;-73
2022/04/23 02:03:21;;;;;;;58.17;2.80;;;;;;;;;;5095670;28;20456;-73
2022/04/23 02:05:49;;;;;;;58.17;2.80;;;;;;;;;;5095683;28;20452;-73
2022/04/23 02:08:16;;;;;;;57.93;2.60;;;;;;;;;;5094817;28;20446;-73
2022/04/23 02:10:43;;;;;;;58.07;2.70;;;;;;;;;;5095362;28;20516;-73
2022/04/23 02:13:12;;;;;;;58.07;2.60;;;;;;;;;;5095548;28;20533;-73
2022/04/23 02:15:40;;;;;;;58.10;2.60;;;;;;;;;;5095524;28;20443;-73
2022/04/23 02:18:08;;;;;;;58.23;2.53;;;;;;;;;;5094762;28;20542;-73
2022/04/23 02:20:35;;;;;;;58.40;2.70;;;;;;;;;;5095327;28;20534;-73
2022/04/23 02:23:02;;;;;;;58.50;2.90;;;;;;;;;;5095163;28;20885;-73
2022/04/23 02:25:30;;;;;;;58.17;2.80;;;;;;;;;;5095157;28;20440;-73
2022/04/23 02:27:57;;;;;;;58.13;2.67;;;;;;;;;;5094553;28;20446;-73
2022/04/23 02:30:25;;;;;;;58.27;2.63;;;;;;;;;;5095123;28;20487;-73
2022/04/23 02:32:53;;;;;;;58.07;2.70;;;;;;;;;;5095097;28;20538;-73
2022/04/23 02:35:20;;;;;;;58.07;2.80;;;;;;;;;;5094991;28;20489;-72
2022/04/23 02:37:48;;;;;;;58.27;2.60;;;;;;;;;;5094211;28;20444;-72
2022/04/23 02:40:16;;;;;;;58.13;2.53;;;;;;;;;;5094707;28;20479;-72
2022/04/23 02:42:43;;;;;;;59.77;3.10;;;;;;;;;;5094923;28;20458;-72
2022/04/23 02:45:11;;;;;;;58.07;2.43;;;;;;;;;;5094883;28;20543;-72
2022/04/23 02:47:47;;;;;;;58.38;2.45;;;;;;;;;;5094266;28;20483;-72
2022/04/23 02:50:15;;;;;;;58.17;2.50;;;;;;;;;;5094468;28;20236;-72
2022/04/23 02:52:43;;;;;;;58.47;2.80;;;;;;;;;;5094603;28;20219;-72
2022/04/23 02:55:11;;;;;;;58.40;2.67;;;;;;;;;;5094585;28;20210;-72
2022/04/23 02:57:38;;;;;;;58.75;3.58;;;;;;;;;;5093725;28;20251;-72
2022/04/23 03:00:06;;;;;;;58.45;2.70;;;;;;;;;;5094623;28;20524;-72
2022/04/23 03:02:36;;;;;;;58.28;2.60;;;;;;;;;;5094407;28;20300;-71
2022/04/23 03:05:05;;;;;;;58.25;2.58;;;;;;;;;;5094362;28;20204;-72
2022/04/23 03:07:33;;;;;;;58.28;2.63;;;;;;;;;;5093958;28;20209;-72
2022/04/23 03:10:00;;;;;;;58.38;2.80;;;;;;;;;;5094329;28;20230;-73
2022/04/23 03:12:27;;;;;;;58.25;2.58;;;;;;;;;;5094330;28;20212;-73
2022/04/23 03:14:54;;;;;;;58.25;2.70;;;;;;;;;;5094406;28;20217;-73
2022/04/23 03:17:21;;;;;;;58.47;2.78;;;;;;;;;;5093460;28;20705;-73
2022/04/23 03:19:48;;;;;;;58.25;2.67;;;;;;;;;;5094002;28;20760;-73
2022/04/23 03:22:19;;;;;;;58.17;2.58;;;;;;;;;;5094294;28;20489;-73
2022/04/23 03:24:47;;;;;;;58.22;2.45;;;;;;;;;;5094188;28;20216;-73
2022/04/23 03:27:14;;;;;;;58.17;2.63;;;;;;;;;;5093213;28;20238;-73
2022/04/23 03:29:41;;;;;;;58.28;2.75;;;;;;;;;;5093919;28;20229;-73
2022/04/23 03:32:10;;;;;;;58.38;2.70;;;;;;;;;;5094005;28;20584;-73
2022/04/23 03:34:37;;;;;;;58.47;2.75;;;;;;;;;;5093988;28;20213;-73
2022/04/23 03:37:04;;;;;;;58.53;2.88;;;;;;;;;;5093836;28;20301;-73
2022/04/23 03:39:33;;;;;;;58.38;2.70;;;;;;;;;;5093480;28;20268;-73
2022/04/23 03:42:02;;;;;;;58.30;2.70;;;;;;;;;;5093724;28;20212;-73
2022/04/23 03:44:30;;;;;;;58.27;2.83;;;;;;;;;;5093457;28;20206;-72
2022/04/23 03:46:57;;;;;;;58.40;2.70;;;;;;;;;;5093743;28;20826;-72
2022/04/23 03:49:24;;;;;;;58.35;2.60;;;;;;;;;;5092822;28;20264;-72
2022/04/23 03:51:52;;;;;;;58.40;2.63;;;;;;;;;;5093670;28;20316;-72
2022/04/23 03:54:19;;;;;;;58.28;2.60;;;;;;;;;;5093357;28;20201;-72
2022/04/23 03:56:47;;;;;;;58.47;2.65;;;;;;;;;;5093351;28;20300;-73
2022/04/23 03:59:20;;;;;;;58.55;2.70;;;;;;;;;;5092966;28;20591;-73
2022/04/23 04:01:47;;;;;;;58.45;2.78;;;;;;;;;;5093755;28;20207;-73
2022/04/23 04:04:15;;;;;;;58.55;2.63;;;;;;;;;;5093377;28;20299;-73
2022/04/23 04:06:42;;;;;;;58.67;3.00;;;;;;;;;;5093327;28;20206;-73
2022/04/23 04:09:09;;;;;;;58.28;2.70;;;;;;;;;;5091995;28;20226;-73
2022/04/23 04:14:19;;;;;;;58.38;2.53;;;;;;;;;;5092816;28;20202;-73
2022/04/23 04:16:46;;;;;;;58.38;2.72;;;;;;;;;;5093370;28;20213;-73
2022/04/23 04:19:14;;;;;;;58.33;2.72;;;;;;;;;;5092299;28;20228;-73
2022/04/23 04:21:43;;;;;;;58.28;2.90;;;;;;;;;;5093048;28;20209;-73
2022/04/23 04:24:12;;;;;;;58.38;2.80;;;;;;;;;;5092784;28;20202;-73
2022/04/23 04:26:40;;;;;;;58.15;2.42;;;;;;;;;;5092743;28;20213;-72
2022/04/23 04:29:07;;;;;;;58.42;2.75;;;;;;;;;;5091992;28;20237;-72
2022/04/23 04:31:48;;;;;;;58.15;2.58;;;;;;;;;;5092788;28;20792;-73
2022/04/23 04:34:16;;;;;;;58.35;2.50;;;;;;;;;;5092790;28;20265;-73
2022/04/23 04:36:43;;;;;;;58.25;2.67;;;;;;;;;;5092558;28;20236;-73
2022/04/23 04:39:10;;;;;;;58.28;2.58;;;;;;;;;;5092196;28;20222;-73
2022/04/23 04:41:37;;;;;;;58.10;2.57;;;;;;;;;;5092546;28;20212;-73
2022/04/23 04:44:05;;;;;;;58.33;2.77;;;;;;;;;;5092596;28;20837;-73
2022/04/23 04:46:32;;;;;;;58.07;2.67;;;;;;;;;;5092801;28;20563;-73
2022/04/23 04:49:00;;;;;;;58.47;2.80;;;;;;;;;;5091836;28;20490;-71
2022/04/23 04:51:27;;;;;;;58.13;2.80;;;;;;;;;;5092255;28;20893;-72
2022/04/23 04:53:55;;;;;;;58.07;2.73;;;;;;;;;;5092575;28;20900;-73
2022/04/23 04:56:22;;;;;;;58.07;2.80;;;;;;;;;;5092635;28;20458;-73
2022/04/23 04:58:49;;;;;;;58.10;2.80;;;;;;;;;;5091670;28;20530;-73
2022/04/23 05:01:17;;;;;;;58.30;2.80;;;;;;;;;;5092479;28;20440;-73
2022/04/23 05:03:44;;;;;;;58.13;2.77;;;;;;;;;;5092060;28;20897;-73
2022/04/23 05:06:12;;;;;;;58.27;2.70;;;;;;;;;;5092155;28;20445;-73
2022/04/23 05:08:40;;;;;;;58.70;3.00;;;;;;;;;;5091396;28;20473;-73
2022/04/23 05:11:07;;;;;;;58.20;2.50;;;;;;;;;;5092127;28;20576;-73
2022/04/23 05:13:34;;;;;;;58.07;2.50;;;;;;;;;;5092097;28;20450;-73
2022/04/23 05:16:01;;;;;;;58.17;2.30;;;;;;;;;;5092174;28;20444;-73
2022/04/23 05:18:28;;;;;;;58.00;2.50;;;;;;;;;;5091330;28;20474;-73
2022/04/23 05:20:55;;;;;;;59.30;3.83;;;;;;;;;;5091103;28;20452;-73
2022/04/23 05:23:24;;;;;;;57.97;2.50;;;;;;;;;;5092056;28;20446;-73
2022/04/23 05:25:51;;;;;;;58.00;2.60;;;;;;;;;;5092001;28;20444;-73
2022/04/23 05:28:18;;;;;;;58.00;2.40;;;;;;;;;;5091303;28;20469;-73
2022/04/23 05:30:45;;;;;;;57.83;2.43;;;;;;;;;;5091784;28;20577;-73
2022/04/23 05:33:13;;;;;;;58.03;2.80;;;;;;;;;;5091772;28;20535;-75
2022/04/23 05:35:40;;;;;;;58.30;2.77;;;;;;;;;;5092044;28;20532;-73
2022/04/23 05:38:07;;;;;;;57.83;2.50;;;;;;;;;;5091181;28;20536;-73
2022/04/23 05:40:36;;;;;;;57.97;2.50;;;;;;;;;;5091933;28;20526;-73
2022/04/23 05:43:03;;;;;;;57.87;2.60;;;;;;;;;;5091686;28;20449;-73
2022/04/23 05:45:31;;;;;;;58.03;2.30;;;;;;;;;;5091656;28;20449;-73
2022/04/23 05:47:58;;;;;;;57.87;2.47;;;;;;;;;;5091131;28;20446;-73
2022/04/23 05:50:25;;;;;;;58.20;2.50;;;;;;;;;;5091878;28;20436;-71
2022/04/23 05:52:53;;;;;;;58.00;2.53;;;;;;;;;;5091825;28;20438;-71
2022/04/23 05:55:20;;;;;;;58.23;2.57;;;;;;;;;;5091977;28;20449;-70
2022/04/23 05:57:48;;;;;;;58.60;3.77;;;;;;;;;;5090971;28;20446;-73
2022/04/23 06:00:16;;;;;;;58.10;2.50;;;;;;;;;;5091424;28;20480;-73
2022/04/23 06:02:43;;;;;;;57.93;2.33;;;;;;;;;;5091791;28;20449;-71
2022/04/23 06:05:11;;;;;;;58.60;3.43;;;;;;;;;;5091924;28;20449;-71
2022/04/23 06:07:38;;;;;;;57.93;2.70;;;;;;;;;;5090930;28;20876;-71
2022/04/23 06:10:06;;;;;;;57.87;2.53;;;;;;;;;;5091140;28;20474;-71
2022/04/23 06:12:34;;;;;;;58.57;3.00;;;;;;;;;;5091267;28;20512;-72
2022/04/23 06:15:02;;;;;;;58.00;2.60;;;;;;;;;;5091672;28;20489;-73
2022/04/23 06:17:30;;;;;;;58.00;2.60;;;;;;;;;;5090742;28;21054;-71
2022/04/23 06:19:57;;;;;;;57.80;2.40;;;;;;;;;;5091421;28;20473;-72
2022/04/23 06:22:24;;;;;;;57.57;2.50;;;;;;;;;;5091449;28;20446;-71
2022/04/23 06:24:52;;;;;;;57.67;2.60;;;;;;;;;;5091593;28;20484;-71
2022/04/23 06:27:19;;;;;;;57.77;2.50;;;;;;;;;;5090545;28;20532;-71
2022/04/23 06:29:46;;;;;;;57.67;2.60;;;;;;;;;;5091441;28;20462;-71
2022/04/23 06:32:15;;;;;;;57.43;2.40;;;;;;;;;;5092887;28;20867;-71
2022/04/23 06:34:42;;;;;;;58.00;3.00;;;;;;;;;;5095133;28;20828;-71
2022/04/23 06:37:09;;;;;;;57.90;2.50;;;;;;;;;;5094553;28;20535;-71
2022/04/23 06:39:37;;;;;;;58.00;2.67;;;;;;;;;;5094797;28;20571;-72
2022/04/23 06:42:04;;;;;;;57.73;2.53;;;;;;;;;;5095089;28;20443;-71
2022/04/23 06:44:31;;;;;;;58.03;2.40;;;;;;;;;;5094980;28;20442;-71
2022/04/23 06:46:58;;;;;;;57.97;2.60;;;;;;;;;;5094923;28;20453;-71
2022/04/23 06:49:27;;;;;;;57.90;2.80;;;;;;;;;;5093914;28;20574;-71
2022/04/23 06:51:55;;;;;;;57.97;2.53;;;;;;;;;;5094640;28;20481;-71
2022/04/23 06:54:22;;;;;;;57.97;2.50;;;;;;;;;;5094717;28;20450;-71
2022/04/23 06:56:49;;;;;;;58.07;2.70;;;;;;;;;;5094729;28;20990;-71
2022/04/23 06:59:16;;;;;;;57.80;2.33;;;;;;;;;;5093911;28;20477;-71
2022/04/23 07:01:43;;;;;;;57.97;2.50;;;;;;;;;;5094595;28;20481;-72
2022/04/23 07:04:11;;;;;;;57.97;2.27;;;;;;;;;;5094514;28;20442;-71
2022/04/23 07:06:40;;;;;;;58.20;3.50;;;;;;;;;;5094405;28;20446;-72
2022/04/23 07:09:07;;;;;;;58.60;3.03;;;;;;;;;;5093765;28;20561;-72
2022/04/23 07:11:34;;;;;;;57.77;2.40;;;;;;;;;;5094618;28;20488;-72
2022/04/23 07:14:02;;;;;;;57.80;2.50;;;;;;;;;;5094223;28;20446;-72
2022/04/23 07:16:29;;;;;;;57.83;2.47;;;;;;;;;;5094370;28;20484;-72
2022/04/23 07:18:56;;;;;;;57.73;2.60;;;;;;;;;;5093330;28;21061;-72
2022/04/23 07:21:24;;;;;;;57.90;2.60;;;;;;;;;;5093981;28;20474;-72
2022/04/23 07:24:05;;;;;;;57.87;2.67;;;;;;;;;;5094038;28;21096;-72
2022/04/23 07:26:34;;;;;;;58.13;2.90;;;;;;;;;;5094117;28;20454;-72
2022/04/23 07:29:02;;;;;;;57.73;2.77;;;;;;;;;;5093334;28;20908;-72
2022/04/23 07:31:30;;;;;;;57.93;2.63;;;;;;;;;;5093876;28;20608;-72
2022/04/23 07:39:29;;;;;;;57.77;2.37;;;;;;;;;;5093145;28;20576;-72
2022/04/23 07:41:56;;;;;;;57.87;2.30;;;;;;;;;;5093667;28;20533;-72
2022/04/23 07:44:23;;;;;;;57.80;2.50;;;;;;;;;;5092622;28;20541;-72
2022/04/23 07:46:50;;;;;;;59.10;3.10;;;;;;;;;;5093596;28;20456;-72
2022/04/23 07:49:18;;;;;;;57.87;2.70;;;;;;;;;;5092829;28;20478;-72
2022/04/23 07:51:46;;;;;;;58.30;3.50;;;;;;;;;;5093645;28;20573;-72
2022/04/23 07:54:13;;;;;;;58.17;2.70;;;;;;;;;;5093470;28;20457;-72
2022/04/23 07:56:42;;;;;;;57.93;2.70;;;;;;;;;;5093867;28;20877;-72
2022/04/23 07:59:09;;;;;;;57.97;2.90;;;;;;;;;;5092776;28;20509;-72
2022/04/23 08:01:37;;;;;;;58.13;2.80;;;;;;;;;;5093455;28;20886;-72
2022/04/23 08:04:04;;;;;;;57.67;2.60;;;;;;;;;;5093215;28;20449;-72
2022/04/23 08:06:32;;;;;;;57.97;2.60;;;;;;;;;;5093451;28;20969;-72
2022/04/23 08:08:59;;;;;;;57.67;2.33;;;;;;;;;;5092384;28;20470;-72
2022/04/23 08:11:26;;;;;;;57.77;2.40;;;;;;;;;;5092967;28;20477;-72
2022/04/23 08:13:56;;;;;;;57.87;2.40;;;;;;;;;;5093304;28;20541;-73
2022/04/23 08:16:26;;;;;;;57.83;2.20;;;;;;;;;;5093421;28;20450;-72
2022/04/23 08:18:54;;;;;;;57.80;2.20;;;;;;;;;;5092384;28;21040;-72
2022/04/23 08:21:21;;;;;;;57.87;2.40;;;;;;;;;;5092930;28;20961;-72
2022/04/23 08:23:48;;;;;;;58.00;2.40;;;;;;;;;;5092815;28;20454;-72
2022/04/23 08:26:16;;;;;;;57.73;2.37;;;;;;;;;;5093133;28;20524;-72
2022/04/23 08:31:29;;;;;;;57.87;2.40;;;;;;;;;;5092906;28;20413;-72
2022/04/23 08:33:59;;;;;;;57.97;2.30;;;;;;;;;;5092654;28;20454;-72
2022/04/23 08:36:27;;;;;;;57.97;2.40;;;;;;;;;;5092573;28;20500;-72
2022/04/23 08:38:55;;;;;;;57.63;2.30;;;;;;;;;;5092023;28;20466;-72
2022/04/23 08:41:25;;;;;;;57.77;2.50;;;;;;;;;;5092761;28;20504;-72
2022/04/23 08:43:52;;;;;;;58.60;3.13;;;;;;;;;;5092715;28;20869;-73
2022/04/23 08:46:20;;;;;;;58.17;2.67;;;;;;;;;;5092525;28;20442;-72
2022/04/23 08:48:51;;;;;;;57.77;2.60;;;;;;;;;;5091467;28;20473;-72
2022/04/23 08:51:23;;;;;;;57.67;2.60;;;;;;;;;;5092690;28;20504;-72
2022/04/23 08:53:55;;;;;;;57.47;2.50;;;;;;;;;;5092685;28;20457;-72
2022/04/23 08:56:22;;;;;;;57.80;2.50;;;;;;;;;;5092550;28;20540;-72
2022/04/23 08:58:49;;;;;;;57.67;2.40;;;;;;;;;;5091773;28;20470;-72
2022/04/23 09:01:17;;;;;;;57.97;2.43;;;;;;;;;;5092334;28;20485;-72
2022/04/23 09:03:45;;;;;;;57.77;2.47;;;;;;;;;;5092653;28;20807;-73
2022/04/23 09:06:13;;;;;;;57.80;2.23;;;;;;;;;;5092499;28;20842;-73
2022/04/23 09:09:07;;;;;;;57.77;2.30;;;;;;;;;;5091660;28;20577;-74
2022/04/23 09:11:36;;;;;;;57.73;2.20;;;;;;;;;;5092162;28;20537;-73
2022/04/23 09:14:03;;;;;;;57.73;2.77;;;;;;;;;;5092066;28;20899;-73
2022/04/23 09:24:46;;;;;;;57.97;2.40;;;;;;;;;;5092403;28;20996;-73
2022/04/23 09:27:13;;;;;;;57.77;2.40;;;;;;;;;;5091247;28;20929;-74
2022/04/23 09:29:42;;;;;;;57.80;2.40;;;;;;;;;;5091986;28;20498;-74
2022/04/23 09:32:10;;;;;;;58.10;2.50;;;;;;;;;;5092053;28;20478;-74
2022/04/23 09:34:38;;;;;;;57.63;2.40;;;;;;;;;;5092365;28;20799;-74
2022/04/23 09:37:08;;;;;;;57.77;2.40;;;;;;;;;;5092234;28;20459;-74
2022/04/23 09:39:38;;;;;;;57.93;2.50;;;;;;;;;;5092034;28;20478;-74
2022/04/23 09:42:12;;;;;;;58.20;2.60;;;;;;;;;;5091955;28;20508;-74
2022/04/23 09:44:40;;;;;;;58.10;2.40;;;;;;;;;;5091863;28;20484;-74
2022/04/23 09:47:07;;;;;;;57.73;2.30;;;;;;;;;;5091390;28;20458;-74
2022/04/23 09:49:34;;;;;;;57.93;2.40;;;;;;;;;;5091214;28;20986;-74
2022/04/23 09:52:01;;;;;;;57.67;2.50;;;;;;;;;;5091702;28;20485;-74
2022/04/23 09:54:31;;;;;;;57.50;2.40;;;;;;;;;;5091671;28;20537;-73
2022/04/23 09:56:59;;;;;;;57.57;2.40;;;;;;;;;;5091731;28;20442;-73
2022/04/23 09:59:27;;;;;;;57.57;2.30;;;;;;;;;;5090979;28;20459;-74
2022/04/23 10:01:55;;;;;;;57.80;2.27;;;;;;;;;;5090587;28;20525;-73
2022/04/23 10:04:23;;;;;;;57.90;2.30;;;;;;;;;;5091427;28;20534;-74
2022/04/23 10:06:51;;;;;;;57.73;2.43;;;;;;;;;;5092557;28;20486;-74
2022/04/23 10:09:21;;;;;;;57.73;2.40;;;;;;;;;;5094902;28;20470;-74
2022/04/23 10:11:50;;;;;;;57.87;2.60;;;;;;;;;;5095776;28;20442;-74
2022/04/23 10:14:19;;;;;;;57.83;2.37;;;;;;;;;;5095366;28;20891;-73
2022/04/23 10:16:48;;;;;;;57.63;2.60;;;;;;;;;;5095518;28;20453;-74
2022/04/23 10:19:16;;;;;;;57.37;2.50;;;;;;;;;;5094670;28;20463;-74
2022/04/23 10:21:47;;;;;;;57.90;2.40;;;;;;;;;;5095436;28;20489;-74
2022/04/23 10:24:17;;;;;;;57.87;2.50;;;;;;;;;;5095212;28;20532;-74
2022/04/23 10:26:47;;;;;;;57.87;2.40;;;;;;;;;;5095387;28;20461;-74
2022/04/23 10:29:17;;;;;;;57.57;2.30;;;;;;;;;;5094704;28;20530;-74
2022/04/23 10:31:44;;;;;;;58.00;2.37;;;;;;;;;;5095367;28;20491;-74
2022/04/23 10:34:31;;;;;;;57.73;2.20;;;;;;;;;;5095211;28;20526;-74
2022/04/23 10:37:14;;;;;;;57.50;2.30;;;;;;;;;;5094952;28;20446;-74
2022/04/23 10:39:42;;;;;;;57.37;2.30;;;;;;;;;;5095095;28;20474;-74
2022/04/23 10:42:13;;;;;;;58.00;2.23;;;;;;;;;;5095031;28;20443;-74
2022/04/23 10:44:42;;;;;;;57.73;2.37;;;;;;;;;;5095071;28;20536;-74
2022/04/23 10:47:13;;;;;;;58.03;2.53;;;;;;;;;;5094064;28;20448;-74
2022/04/23 10:49:40;;;;;;;57.77;2.30;;;;;;;;;;5094445;28;21014;-74
2022/04/23 10:52:07;;;;;;;57.87;2.30;;;;;;;;;;5094716;28;20961;-74
2022/04/23 10:54:53;;;;;;;57.97;2.50;;;;;;;;;;5094511;28;20491;-74
2022/04/23 10:57:20;;;;;;;58.10;2.20;;;;;;;;;;5093994;28;20957;-74
2022/04/23 10:59:49;;;;;;;58.07;2.60;;;;;;;;;;5094521;28;21031;-72
2022/04/23 11:02:31;;;;;;;57.80;2.30;;;;;;;;;;5094445;28;20520;-74
2022/04/23 11:13:23;;;;;;;57.63;2.17;;;;;;;;;;5094351;28;20467;-74
2022/04/23 11:16:05;;;;;;;57.60;2.30;;;;;;;;;;5094538;28;20558;-74
2022/04/23 11:18:34;;;;;;;57.70;2.30;;;;;;;;;;5092023;28;20987;-74
2022/04/23 11:21:07;;;;;;;57.77;2.40;;;;;;;;;;5094074;28;20908;-74
2022/04/23 11:23:35;;;;;;;57.57;2.20;;;;;;;;;;5094319;28;20435;-74
2022/04/23 11:26:03;;;;;;;57.90;2.37;;;;;;;;;;5094213;28;20448;-75
2022/04/23 11:28:30;;;;;;;57.57;2.20;;;;;;;;;;5093152;28;20459;-74
2022/04/23 11:31:00;;;;;;;58.10;2.50;;;;;;;;;;5093888;28;20542;-74
2022/04/23 11:33:27;;;;;;;57.67;2.40;;;;;;;;;;5093843;28;20553;-74
2022/04/23 11:36:00;;;;;;;57.77;2.50;;;;;;;;;;5093886;28;20951;-74
2022/04/23 11:38:28;;;;;;;57.73;2.50;;;;;;;;;;5093118;28;20839;-74
2022/04/23 11:40:55;;;;;;;57.47;2.30;;;;;;;;;;5093871;28;20541;-74
2022/04/23 11:43:29;;;;;;;57.93;2.40;;;;;;;;;;5093817;28;20442;-74
2022/04/23 11:45:57;;;;;;;57.90;2.27;;;;;;;;;;5093380;28;21021;-74
2022/04/23 11:48:24;;;;;;;57.57;2.30;;;;;;;;;;5092914;28;20487;-74
2022/04/23 11:50:52;;;;;;;57.53;2.17;;;;;;;;;;5093753;28;20500;-74
2022/04/23 11:53:21;;;;;;;57.77;2.40;;;;;;;;;;5093504;28;20855;-74
2022/04/23 11:55:50;;;;;;;57.67;2.30;;;;;;;;;;5093512;28;20880;-74
2022/04/23 11:58:20;;;;;;;57.73;2.60;;;;;;;;;;5092642;28;20455;-74
2022/04/23 12:00:47;;;;;;;57.67;2.30;;;;;;;;;;5093473;28;20453;-74
2022/04/23 12:03:15;;;;;;;57.60;2.20;;;;;;;;;;5093390;28;20440;-74
2022/04/23 12:05:42;;;;;;;58.00;2.43;;;;;;;;;;5093435;28;20824;-74
2022/04/23 12:08:21;;;;;;;57.87;3.33;;;;;;;;;;5092715;28;20460;-74
2022/04/23 12:10:49;;;;;;;57.57;2.40;;;;;;;;;;5093200;28;20947;-74
2022/04/23 12:13:18;;;;;;;57.97;2.50;;;;;;;;;;5093016;28;20906;-74
2022/04/23 12:15:46;;;;;;;58.00;2.80;;;;;;;;;;5093273;28;20459;-74
2022/04/23 12:18:14;;;;;;;57.67;2.13;;;;;;;;;;5092331;28;20942;-74
2022/04/23 12:20:43;;;;;;;57.83;2.40;;;;;;;;;;5093014;28;20445;-74
2022/04/23 12:23:10;;;;;;;57.87;2.10;;;;;;;;;;5092813;28;20957;-74
2022/04/23 12:25:38;;;;;;;58.10;2.40;;;;;;;;;;5092788;28;20455;-74
2022/04/23 12:40:44;;;;;;;57.50;2.30;;;;;;;;;;5092190;28;20445;-74
2022/04/23 12:42:02;;;;;;;57.70;2.10;;;;;;;;;;5092742;28;20926;-75
2022/04/23 12:44:35;;;;;;;58.10;2.43;;;;;;;;;;5092819;28;20818;-74
2022/04/23 12:47:03;;;;;;;57.53;2.07;;;;;;;;;;5092918;28;21017;-74
2022/04/23 12:49:47;;;;;;;57.77;2.27;;;;;;;;;;5091819;28;20481;-74
2022/04/23 12:52:16;;;;;;;57.63;2.30;;;;;;;;;;5092483;28;20883;-74
2022/04/23 12:55:03;;;;;;;57.13;2.10;;;;;;;;;;5092182;28;20478;-72
2022/04/23 12:57:31;;;;;;;57.67;2.30;;;;;;;;;;5091558;28;21048;-73
2022/04/23 12:59:59;;;;;;;56.90;2.20;;;;;;;;;;5092396;28;20997;-72
2022/04/23 13:02:26;;;;;;;57.90;2.60;;;;;;;;;;5092390;28;20457;-72
2022/04/23 13:04:54;;;;;;;57.77;2.40;;;;;;;;;;5092165;28;20457;-72
2022/04/23 13:10:06;;;;;;;57.80;2.10;;;;;;;;;;5092263;28;20444;-72
2022/04/23 13:12:33;;;;;;;57.50;2.27;;;;;;;;;;5091976;28;20473;-72
2022/04/23 13:15:02;;;;;;;57.37;2.50;;;;;;;;;;5092252;28;20880;-72
2022/04/23 13:17:29;;;;;;;57.37;2.10;;;;;;;;;;5091384;28;20457;-72
2022/04/23 13:19:56;;;;;;;57.97;2.47;;;;;;;;;;5091168;28;20847;-72
2022/04/23 13:22:23;;;;;;;57.97;3.20;;;;;;;;;;5090527;28;20459;-72
2022/04/23 13:24:50;;;;;;;57.80;2.40;;;;;;;;;;5090720;28;20532;-72
2022/04/23 13:27:17;;;;;;;57.63;2.10;;;;;;;;;;5090272;28;20840;-72
2022/04/23 13:29:44;;;;;;;57.53;2.20;;;;;;;;;;5091705;28;20465;-72
2022/04/23 13:32:13;;;;;;;57.33;2.53;;;;;;;;;;5091243;28;20893;-73
2022/04/23 13:34:40;;;;;;;58.00;2.20;;;;;;;;;;5091575;28;20489;-72
2022/04/23 13:37:07;;;;;;;58.20;3.10;;;;;;;;;;5091197;28;20602;-72
2022/04/23 13:39:34;;;;;;;57.67;2.10;;;;;;;;;;5090980;28;20505;-72
2022/04/23 13:42:01;;;;;;;57.80;1.90;;;;;;;;;;5093017;28;20537;-72
2022/04/23 13:44:29;;;;;;;57.57;2.30;;;;;;;;;;5094574;28;20519;-72
2022/04/23 13:46:56;;;;;;;57.80;2.23;;;;;;;;;;5095703;28;20938;-72
2022/04/23 13:49:25;;;;;;;57.67;2.27;;;;;;;;;;5094914;28;20540;-73
2022/04/23 13:51:52;;;;;;;58.10;2.90;;;;;;;;;;5095988;28;20536;-73
2022/04/23 13:54:20;;;;;;;57.93;2.50;;;;;;;;;;5095197;28;20583;-73
2022/04/23 13:56:49;;;;;;;57.87;2.40;;;;;;;;;;5095743;28;20892;-73
2022/04/23 13:59:16;;;;;;;57.83;2.30;;;;;;;;;;5093936;28;20469;-73
2022/04/23 14:10:04;;;;;;;57.63;2.30;;;;;;;;;;5095371;28;20540;-73
2022/04/23 14:10:08;;;;;;;57.77;2.20;;;;;;;;;;5094725;28;20445;-73
2022/04/23 14:12:35;;;;;;;57.67;2.40;;;;;;;;;;5094416;28;20846;-74
2022/04/23 14:15:02;;;;;;;57.57;2.20;;;;;;;;;;5095073;28;20531;-73
2022/04/23 14:17:30;;;;;;;57.33;2.00;;;;;;;;;;5094214;28;20457;-73
2022/04/23 14:19:58;;;;;;;57.13;2.30;;;;;;;;;;5093469;28;20551;-72
2022/04/23 14:22:25;;;;;;;57.93;2.63;;;;;;;;;;5094396;28;20495;-72
2022/04/23 14:24:54;;;;;;;57.47;2.40;;;;;;;;;;5093474;28;20527;-72
2022/04/23 14:27:21;;;;;;;57.87;2.83;;;;;;;;;;5093782;28;20453;-72
2022/04/23 14:29:48;;;;;;;57.73;2.40;;;;;;;;;;5094224;28;20795;-72
2022/04/23 14:32:16;;;;;;;57.67;2.20;;;;;;;;;;5093757;28;20453;-72
2022/04/23 14:34:44;;;;;;;57.07;2.40;;;;;;;;;;5093611;28;20536;-72
2022/04/23 14:37:12;;;;;;;57.57;2.77;;;;;;;;;;5092567;28;20879;-72
2022/04/23 14:39:39;;;;;;;57.77;2.50;;;;;;;;;;5094186;28;20472;-72
2022/04/23 14:42:07;;;;;;;57.90;2.50;;;;;;;;;;5094631;28;20480;-72
2022/04/23 14:44:34;;;;;;;57.73;2.23;;;;;;;;;;5093693;28;20519;-72
2022/04/23 14:47:03;;;;;;;57.90;2.43;;;;;;;;;;5094086;28;20451;-72
2022/04/23 14:49:30;;;;;;;57.47;2.30;;;;;;;;;;5093514;28;20490;-75
2022/04/23 14:54:43;;;;;;;58.00;2.40;;;;;;;;;;5093777;28;20529;-75
2022/04/23 14:57:11;;;;;;;58.70;3.20;;;;;;;;;;5092948;28;20483;-72
2022/04/23 14:59:38;;;;;;;57.77;2.20;;;;;;;;;;5092864;28;20466;-72
2022/04/23 15:02:05;;;;;;;57.83;2.30;;;;;;;;;;5094312;28;20452;-72
2022/04/23 15:04:33;;;;;;;57.77;2.50;;;;;;;;;;5094373;28;20525;-72
2022/04/23 15:07:00;;;;;;;57.80;2.20;;;;;;;;;;5093628;28;20504;-72
2022/04/23 15:09:27;;;;;;;57.73;2.50;;;;;;;;;;5092535;28;20471;-72
2022/04/23 15:11:55;;;;;;;58.07;2.70;;;;;;;;;;5094180;28;20511;-73
2022/04/23 15:14:22;;;;;;;57.77;2.33;;;;;;;;;;5094017;28;20944;-72
2022/04/23 15:16:50;;;;;;;58.07;2.93;;;;;;;;;;5094302;28;20444;-72
2022/04/23 15:19:17;;;;;;;57.63;2.27;;;;;;;;;;5092838;28;20511;-72
2022/04/23 15:21:44;;;;;;;57.57;2.30;;;;;;;;;;5093918;28;20450;-72
2022/04/23 15:24:11;;;;;;;57.87;2.50;;;;;;;;;;5093740;28;20459;-72
2022/04/23 15:26:41;;;;;;;57.73;2.40;;;;;;;;;;5092823;28;20451;-72